KDKR

Houston County Airport

Crockett, Texas, USA
METAR KDKR 122130Z AUTO 15005KT 10SM 16/13 A2996 RMK AO2
Observed Flight Rules
Dec-12 @ 21:30 UTC (27 minutes ago)
Wind Visibility
150° at 5 knots 10 miles
Temperatures Readings
Current 16°C / 61°F
Dewpoint 13°C / 55°F
Humidity 83%
Altimeter 29.96" Hg
Pressure 1015 hPa
Elevation 106
METAR KDKR 122130Z AUTO 15005KT 10SM 16/13 A2996 RMK AO2
Observed Flight Rules
Dec-12 @ 21:30 UTC
(27 minutes ago)
Wind Visibility
150° at 5 knots 10 miles
Temperature Dewpoint
16°C / 61°F 13°C / 55°F
Humidity Altimeter Pressure
83% 29.96" Hg 1015 hPa